Pauma Valley, California
Current Conditions -  °F | °C
As of 7:15 AM on Thursday 18 Dec 2014 (Local Time) from KL18 Reporting Station
Overcast Overcast  
Wind Chill:   Ceiling: 3500
Heat Index:   Visibility: 10mi
Dew Point:   Wind: 5mph
Humidity: 93%   Direction: 10°N
Pressure: 30.17"   Gusts: NA
Location:  33.3°N, 116.98°W
Report Text: KL18 181515Z AUTO 01004KT 10SM SCT031 BKN035 OVC043 09/08 A3017 RMK AO2
Loading
Personal Weather Stations






























Interactive Weather Map New forecast layout! Learn more

10-Day Weather Forecast

Advertisements
Track Severe Weather on mobile